Time;durP1;ratioP1;P1;durP2;ratioP2;P2;SDS_P1;SDS_P2;PMS_P1;PMS_P2;Temp;Humidity;BMP_temperature;BMP_pressure;BME280_temperature;BME280_humidity;BME280_pressure;Samples;Min_cycle;Max_cycle;Signal;HPM_P1;HPM_P2
2023/09/04 00:00:28;;;;;;;;;;;;;;;15.45;87.06;102679.22;5022702;28;19914;-62
2023/09/04 00:02:54;;;;;;;;;;;;;;;15.41;87.22;102688.75;5022850;28;20010;-62
2023/09/04 00:05:19;;;;;;;;;;;;;;;15.37;87.26;102694.75;5021948;28;20052;-62
2023/09/04 00:07:44;;;;;;;;;;;;;;;15.33;87.39;102682.34;5019424;28;19921;-62
2023/09/04 00:10:10;;;;;;;;;;;;;;;15.32;87.40;102680.53;5023348;28;19921;-62
2023/09/04 00:12:35;;;;;;;;;;;;;;;15.31;87.10;102670.91;5023327;28;19981;-62
2023/09/04 00:15:00;;;;;;;;;;;;;;;15.18;87.46;102676.56;5023423;28;20162;-62
2023/09/04 00:17:26;;;;;;;;;;;;;;;15.05;88.37;102672.66;4998999;28;20111;-62
2023/09/04 00:19:51;;;;;;;;;;;;;;;15.01;88.49;102670.75;5023269;28;19914;-61
2023/09/04 00:22:16;;;;;;;;;;;;;;;15.01;88.37;102671.63;5022220;28;20043;-61
2023/09/04 00:24:41;;;;;;;;;;;;;;;15.01;88.45;102666.38;5023506;28;19936;-61
2023/09/04 00:27:06;;;;;;;;;;;;;;;15.00;88.47;102669.84;5022904;28;20179;-62
2023/09/04 00:29:32;;;;;;;;;;;;;;;14.93;88.63;102671.38;5026380;28;19913;-62
2023/09/04 00:31:57;;;;;;;;;;;;;;;14.81;88.87;102662.16;5023234;28;19917;-61
2023/09/04 00:34:22;;;;;;;;;;;;;;;14.75;89.22;102668.97;5022363;28;19914;-61
2023/09/04 00:36:48;;;;;;;;;;;;;;;14.74;89.22;102663.66;5022455;28;19949;-62
2023/09/04 00:39:13;;;;;;;;;;;;;;;14.73;89.32;102670.66;5000769;28;19918;-61
2023/09/04 00:41:38;;;;;;;;;;;;;;;14.74;89.50;102672.47;5020267;28;19914;-61
2023/09/04 00:44:04;;;;;;;;;;;;;;;14.74;89.69;102677.72;5022203;28;19977;-62
2023/09/04 00:46:29;;;;;;;;;;;;;;;14.77;89.56;102676.91;5021404;28;20044;-61
2023/09/04 00:48:55;;;;;;;;;;;;;;;14.76;89.65;102668.16;5021774;28;19921;-61
2023/09/04 00:51:20;;;;;;;;;;;;;;;14.76;89.22;102675.13;5024009;28;20171;-62
2023/09/04 00:53:46;;;;;;;;;;;;;;;14.73;89.25;102678.53;5022005;28;19914;-61
2023/09/04 00:56:13;;;;;;;;;;;;;;;14.68;89.03;102677.47;5022873;28;19917;-61
2023/09/04 00:58:38;;;;;;;;;;;;;;;14.69;89.38;102673.13;5013534;28;20132;-62
2023/09/04 01:01:03;;;;;;;;;;;;;;;14.66;89.16;102673.91;5022699;28;19913;-62
2023/09/04 01:03:29;;;;;;;;;;;;;;;14.62;89.28;102679.88;5022006;28;19913;-61
2023/09/04 01:05:55;;;;;;;;;;;;;;;14.59;88.85;102674.47;5021699;28;19936;-61
2023/09/04 01:08:20;;;;;;;;;;;;;;;14.58;88.97;102675.31;5022545;28;20158;-61
2023/09/04 01:11:08;;;;;;;;;;;;;;;14.53;89.19;102666.41;5021576;28;19963;-61
2023/09/04 01:13:40;;;;;;;;;;;;;;;14.50;88.86;102671.53;5021967;28;20059;-61
2023/09/04 01:16:09;;;;;;;;;;;;;;;14.41;89.01;102667.72;5020954;28;19920;-61
2023/09/04 01:18:34;;;;;;;;;;;;;;;14.38;89.19;102666.69;5015577;28;19932;-61
2023/09/04 01:21:04;;;;;;;;;;;;;;;14.37;89.07;102664.94;5019071;28;19944;-61
2023/09/04 01:23:29;;;;;;;;;;;;;;;14.31;89.20;102662.97;5022630;28;19913;-62
2023/09/04 01:25:59;;;;;;;;;;;;;;;14.23;89.46;102664.41;5021698;28;19933;-62
2023/09/04 01:28:28;;;;;;;;;;;;;;;14.20;90.00;102669.53;5012479;28;20198;-61
2023/09/04 01:30:56;;;;;;;;;;;;;;;14.19;89.91;102665.13;5024936;28;19945;-61
2023/09/04 01:33:26;;;;;;;;;;;;;;;14.15;89.79;102656.25;5012300;28;20063;-61
2023/09/04 01:35:51;;;;;;;;;;;;;;;14.13;89.67;102659.66;5017774;28;20121;-61
2023/09/04 01:38:17;;;;;;;;;;;;;;;14.09;89.66;102653.38;5016071;28;19920;-61
2023/09/04 01:40:42;;;;;;;;;;;;;;;14.06;89.70;102664.66;5021330;28;20073;-61
2023/09/04 01:43:07;;;;;;;;;;;;;;;14.05;89.84;102662.88;5020326;28;20171;-62
2023/09/04 01:45:33;;;;;;;;;;;;;;;14.00;89.64;102653.03;5021517;28;19940;-61
2023/09/04 01:47:58;;;;;;;;;;;;;;;13.96;89.67;102659.91;5021345;28;19976;-61
2023/09/04 01:50:23;;;;;;;;;;;;;;;13.91;89.86;102650.97;5021655;28;19925;-61
2023/09/04 01:52:48;;;;;;;;;;;;;;;13.90;89.79;102659.66;5022160;28;19973;-61
2023/09/04 01:55:13;;;;;;;;;;;;;;;13.86;90.21;102655.13;5024929;28;19981;-61
2023/09/04 01:57:39;;;;;;;;;;;;;;;13.85;90.23;102661.22;5024939;28;19985;-62
2023/09/04 02:00:04;;;;;;;;;;;;;;;13.83;90.32;102657.63;5026514;28;19925;-61
2023/09/04 02:02:30;;;;;;;;;;;;;;;13.79;90.45;102654.00;5005578;28;19941;-61
2023/09/04 02:04:55;;;;;;;;;;;;;;;13.78;90.25;102657.44;5023885;28;19913;-61
2023/09/04 02:07:20;;;;;;;;;;;;;;;13.78;90.47;102653.94;5024966;28;19914;-61
2023/09/04 02:09:46;;;;;;;;;;;;;;;13.80;90.65;102650.56;5022913;28;19917;-61
2023/09/04 02:12:11;;;;;;;;;;;;;;;13.83;90.39;102655.00;5023717;28;19920;-61
2023/09/04 02:14:36;;;;;;;;;;;;;;;13.81;90.35;102651.44;5025944;28;19909;-61
2023/09/04 02:17:01;;;;;;;;;;;;;;;13.76;90.27;102646.03;5025244;28;19914;-61
2023/09/04 02:19:26;;;;;;;;;;;;;;;13.71;90.42;102644.94;5024402;28;19937;-61
2023/09/04 02:21:52;;;;;;;;;;;;;;;13.68;90.33;102643.06;5025583;28;19913;-61
2023/09/04 02:24:17;;;;;;;;;;;;;;;13.63;90.20;102641.09;5025411;28;20158;-61
2023/09/04 02:26:42;;;;;;;;;;;;;;;13.58;90.29;102638.31;5023960;28;20093;-61
2023/09/04 02:29:07;;;;;;;;;;;;;;;13.57;90.42;102637.44;5023133;28;19914;-61
2023/09/04 02:31:33;;;;;;;;;;;;;;;13.56;90.23;102634.75;5023400;28;19988;-61
2023/09/04 02:33:58;;;;;;;;;;;;;;;13.55;90.68;102638.19;5025858;28;19968;-61
2023/09/04 02:36:23;;;;;;;;;;;;;;;13.54;90.61;102629.44;5024952;28;20009;-61
2023/09/04 02:38:49;;;;;;;;;;;;;;;13.54;90.55;102631.16;5024852;28;19933;-61
2023/09/04 02:41:14;;;;;;;;;;;;;;;13.54;90.34;102637.31;5024118;28;20161;-61
2023/09/04 02:43:39;;;;;;;;;;;;;;;13.55;90.26;102632.94;5024781;28;19921;-61
2023/09/04 02:46:04;;;;;;;;;;;;;;;13.51;90.32;102631.03;5023541;28;19913;-61
2023/09/04 02:48:30;;;;;;;;;;;;;;;13.45;90.29;102631.69;5024561;28;19914;-61
2023/09/04 02:50:58;;;;;;;;;;;;;;;13.42;90.41;102625.44;5024281;28;19928;-61
2023/09/04 02:53:26;;;;;;;;;;;;;;;13.38;90.30;102620.09;5024967;28;19930;-61
2023/09/04 02:55:52;;;;;;;;;;;;;;;13.36;90.45;102626.09;5024927;28;19936;-61
2023/09/04 02:58:17;;;;;;;;;;;;;;;13.33;90.45;102625.94;5025340;28;19910;-61
2023/09/04 03:00:43;;;;;;;;;;;;;;;13.32;90.68;102618.91;5022661;28;19959;-61
2023/09/04 03:03:08;;;;;;;;;;;;;;;13.30;90.70;102612.72;5024092;28;19913;-61
2023/09/04 03:05:33;;;;;;;;;;;;;;;13.28;90.55;102617.91;5022533;28;19913;-61
2023/09/04 03:07:59;;;;;;;;;;;;;;;13.24;90.73;102613.34;5024793;28;19914;-61
2023/09/04 03:10:24;;;;;;;;;;;;;;;13.22;91.00;102620.22;5024507;28;19916;-61
2023/09/04 03:12:49;;;;;;;;;;;;;;;13.20;90.97;102608.81;5023821;28;19937;-61
2023/09/04 03:15:15;;;;;;;;;;;;;;;13.18;90.92;102610.50;4993169;28;19925;-61
2023/09/04 03:17:40;;;;;;;;;;;;;;;13.18;91.06;102608.75;5015167;28;20228;-61
2023/09/04 03:20:09;;;;;;;;;;;;;;;13.17;90.98;102591.25;5024058;28;19949;-61
2023/09/04 03:22:34;;;;;;;;;;;;;;;13.14;91.08;102598.09;5014621;28;19920;-61
2023/09/04 03:24:59;;;;;;;;;;;;;;;13.09;91.25;102594.38;5022772;28;19980;-61
2023/09/04 03:27:25;;;;;;;;;;;;;;;13.04;91.35;102587.25;5024256;28;20161;-61
2023/09/04 03:29:51;;;;;;;;;;;;;;;12.98;91.37;102589.59;5024717;28;19917;-61
2023/09/04 03:32:16;;;;;;;;;;;;;;;12.92;91.88;102589.34;5021749;28;19959;-61
2023/09/04 03:34:42;;;;;;;;;;;;;;;12.86;91.96;102589.06;5023518;28;19972;-61
2023/09/04 03:37:07;;;;;;;;;;;;;;;12.81;91.89;102582.78;5024624;28;19960;-61
2023/09/04 03:39:36;;;;;;;;;;;;;;;12.75;92.35;102588.63;5023555;28;19929;-61
2023/09/04 03:42:02;;;;;;;;;;;;;;;12.73;92.48;102592.91;5023267;28;20044;-61
2023/09/04 03:44:27;;;;;;;;;;;;;;;12.69;92.63;102594.50;5024423;28;19920;-61
2023/09/04 03:46:52;;;;;;;;;;;;;;;12.66;92.25;102596.97;5024524;28;19910;-61
2023/09/04 03:49:18;;;;;;;;;;;;;;;12.63;92.94;102585.47;5024048;28;19956;-61
2023/09/04 03:51:43;;;;;;;;;;;;;;;12.61;93.28;102590.66;5005132;28;19913;-60
2023/09/04 03:54:08;;;;;;;;;;;;;;;12.62;93.24;102588.94;5023679;28;19955;-60
2023/09/04 03:56:34;;;;;;;;;;;;;;;12.60;93.29;102586.25;5021603;28;20159;-60
2023/09/04 03:59:00;;;;;;;;;;;;;;;12.56;93.43;102584.34;5022740;28;20027;-60
2023/09/04 04:01:27;;;;;;;;;;;;;;;12.50;93.67;102582.34;5022982;28;20163;-60
2023/09/04 04:03:53;;;;;;;;;;;;;;;12.50;93.80;102573.63;5023666;28;19916;-60
2023/09/04 04:06:20;;;;;;;;;;;;;;;12.50;93.85;102576.25;5022385;28;19913;-60
2023/09/04 04:08:46;;;;;;;;;;;;;;;12.48;94.08;102578.78;5023052;28;19917;-60
2023/09/04 04:11:11;;;;;;;;;;;;;;;12.45;93.99;102575.13;5005705;28;19925;-60
2023/09/04 04:13:36;;;;;;;;;;;;;;;12.44;93.84;102570.72;5023552;28;20497;-60
2023/09/04 04:16:02;;;;;;;;;;;;;;;12.44;93.89;102565.50;5023198;28;19917;-60
2023/09/04 04:18:28;;;;;;;;;;;;;;;12.43;94.02;102574.19;5021456;28;20099;-60
2023/09/04 04:20:54;;;;;;;;;;;;;;;12.42;94.02;102577.59;5020829;28;19968;-61
2023/09/04 04:23:19;;;;;;;;;;;;;;;12.42;94.06;102585.47;5023386;28;20139;-60
2023/09/04 04:25:44;;;;;;;;;;;;;;;12.41;94.26;102578.44;5023262;28;19925;-60
2023/09/04 04:28:09;;;;;;;;;;;;;;;12.39;94.19;102578.38;5008207;28;19968;-60
2023/09/04 04:30:35;;;;;;;;;;;;;;;12.40;94.24;102576.63;5024388;28;20067;-60
2023/09/04 04:33:00;;;;;;;;;;;;;;;12.38;94.27;102567.84;5022737;28;19920;-60
2023/09/04 04:35:26;;;;;;;;;;;;;;;12.38;94.54;102575.69;5022520;28;19917;-60
2023/09/04 04:37:51;;;;;;;;;;;;;;;12.40;94.51;102577.53;5017718;28;19957;-60
2023/09/04 04:40:22;;;;;;;;;;;;;;;12.41;94.61;102581.03;5016508;28;19913;-60
2023/09/04 04:42:47;;;;;;;;;;;;;;;12.41;94.50;102581.97;5021787;28;19910;-60
2023/09/04 04:45:13;;;;;;;;;;;;;;;12.43;94.47;102582.03;5019834;28;19925;-60
2023/09/04 04:47:38;;;;;;;;;;;;;;;12.43;94.40;102582.03;5021062;28;19913;-60
2023/09/04 04:50:03;;;;;;;;;;;;;;;12.43;94.26;102577.69;5023305;28;19924;-60
2023/09/04 04:52:29;;;;;;;;;;;;;;;12.41;94.24;102575.81;5022076;28;19991;-60
2023/09/04 04:54:54;;;;;;;;;;;;;;;12.38;94.31;102576.56;5021701;28;19914;-60
2023/09/04 04:57:19;;;;;;;;;;;;;;;12.37;94.42;102580.03;5020292;28;20044;-61
2023/09/04 04:59:45;;;;;;;;;;;;;;;12.35;94.46;102572.13;5021562;28;20110;-61
2023/09/04 05:02:10;;;;;;;;;;;;;;;12.34;94.41;102569.44;5022719;28;19914;-61
2023/09/04 05:04:35;;;;;;;;;;;;;;;12.33;94.56;102563.31;5023136;28;19968;-61
2023/09/04 05:07:01;;;;;;;;;;;;;;;12.31;94.49;102569.28;5021151;28;20114;-61
2023/09/04 05:09:26;;;;;;;;;;;;;;;12.28;94.67;102569.16;5019673;28;20110;-61
2023/09/04 05:11:51;;;;;;;;;;;;;;;12.25;94.68;102575.16;5021013;28;19937;-61
2023/09/04 05:14:17;;;;;;;;;;;;;;;12.22;94.73;102567.16;5022352;28;19914;-60
2023/09/04 05:16:42;;;;;;;;;;;;;;;12.20;94.84;102575.78;5021476;28;20098;-61
2023/09/04 05:19:07;;;;;;;;;;;;;;;12.15;94.90;102580.78;5022167;28;19913;-61
2023/09/04 05:21:32;;;;;;;;;;;;;;;12.12;95.14;102584.16;5022215;28;19921;-61
2023/09/04 05:23:58;;;;;;;;;;;;;;;12.11;95.24;102587.59;5021597;28;19964;-61
2023/09/04 05:26:23;;;;;;;;;;;;;;;12.12;95.44;102578.03;5005234;28;19914;-61
2023/09/04 05:28:48;;;;;;;;;;;;;;;12.12;95.38;102581.56;5029445;28;19909;-61
2023/09/04 05:31:13;;;;;;;;;;;;;;;12.14;95.55;102577.28;5021572;28;20227;-61
2023/09/04 05:33:38;;;;;;;;;;;;;;;12.16;95.65;102579.94;5025360;28;19991;-61
2023/09/04 05:36:04;;;;;;;;;;;;;;;12.17;95.86;102577.41;5025425;28;19925;-61
2023/09/04 05:38:29;;;;;;;;;;;;;;;12.20;96.03;102581.88;5026652;28;19909;-61
2023/09/04 05:40:55;;;;;;;;;;;;;;;12.20;96.00;102586.22;5023863;28;19920;-61
2023/09/04 05:43:21;;;;;;;;;;;;;;;12.21;96.26;102586.28;5023149;28;19917;-61
2023/09/04 05:45:46;;;;;;;;;;;;;;;12.25;96.22;102584.69;5024996;28;19913;-60
2023/09/04 05:48:11;;;;;;;;;;;;;;;12.29;96.17;102589.25;5026854;28;19909;-60
2023/09/04 05:50:36;;;;;;;;;;;;;;;12.34;96.48;102574.66;5025542;28;19929;-61
2023/09/04 05:53:02;;;;;;;;;;;;;;;12.35;96.60;102587.81;5025164;28;20143;-61
2023/09/04 05:55:27;;;;;;;;;;;;;;;12.38;96.49;102586.13;5025855;28;19917;-60
2023/09/04 05:57:52;;;;;;;;;;;;;;;12.41;96.77;102588.88;5026140;28;19917;-60
2023/09/04 06:00:17;;;;;;;;;;;;;;;12.42;96.86;102580.22;5023740;28;19913;-61
2023/09/04 06:02:42;;;;;;;;;;;;;;;12.44;96.87;102589.00;5015088;28;19945;-61
2023/09/04 06:05:08;;;;;;;;;;;;;;;12.47;97.01;102578.69;5025602;28;20206;-61
2023/09/04 06:07:34;;;;;;;;;;;;;;;12.51;97.16;102584.16;5025171;28;19921;-61
2023/09/04 06:09:59;;;;;;;;;;;;;;;12.55;97.33;102581.66;5024754;28;19969;-61
2023/09/04 06:12:24;;;;;;;;;;;;;;;12.58;97.46;102587.03;5025874;28;19913;-60
2023/09/04 06:14:49;;;;;;;;;;;;;;;12.59;97.54;102586.19;5026496;28;19960;-60
2023/09/04 06:17:15;;;;;;;;;;;;;;;12.61;97.65;102580.19;5023388;28;20163;-61
2023/09/04 06:19:40;;;;;;;;;;;;;;;12.65;97.90;102583.84;5025529;28;19972;-60
2023/09/04 06:22:05;;;;;;;;;;;;;;;12.67;98.20;102582.16;5023603;28;19913;-60
2023/09/04 06:24:32;;;;;;;;;;;;;;;12.70;97.74;102585.84;5025737;28;19945;-61
2023/09/04 06:26:57;;;;;;;;;;;;;;;12.74;97.84;102586.84;5025224;28;20014;-61
2023/09/04 06:29:22;;;;;;;;;;;;;;;12.77;97.97;102584.34;5028403;28;20139;-61
2023/09/04 06:31:49;;;;;;;;;;;;;;;12.83;98.26;102582.00;5026524;28;19921;-61
2023/09/04 06:34:15;;;;;;;;;;;;;;;12.91;97.59;102578.84;5024735;28;19961;-60
2023/09/04 06:36:40;;;;;;;;;;;;;;;12.98;98.07;102586.09;5024122;28;20060;-61
2023/09/04 06:39:06;;;;;;;;;;;;;;;13.02;98.46;102583.69;5024469;28;19921;-61
2023/09/04 06:41:32;;;;;;;;;;;;;;;13.08;98.09;102582.13;5022635;28;19930;-61
2023/09/04 06:43:57;;;;;;;;;;;;;;;13.14;99.02;102585.03;5025110;28;19972;-61
2023/09/04 06:46:22;;;;;;;;;;;;;;;13.18;98.33;102579.09;5024299;28;19913;-61
2023/09/04 06:48:48;;;;;;;;;;;;;;;13.27;98.80;102579.44;5025117;28;19920;-61
2023/09/04 06:51:13;;;;;;;;;;;;;;;13.37;100.00;102578.13;5024625;28;19921;-60
2023/09/04 06:53:38;;;;;;;;;;;;;;;13.44;100.00;102572.31;5024965;28;20098;-61
2023/09/04 06:56:03;;;;;;;;;;;;;;;13.53;100.00;102571.78;5024682;28;19921;-61
2023/09/04 06:58:29;;;;;;;;;;;;;;;13.61;100.00;102572.06;5023728;28;19930;-61
2023/09/04 07:00:54;;;;;;;;;;;;;;;13.71;100.00;102569.84;5022384;28;19913;-61
2023/09/04 07:03:19;;;;;;;;;;;;;;;13.81;100.00;102564.97;5023073;28;19910;-61
2023/09/04 07:05:44;;;;;;;;;;;;;;;13.92;100.00;102571.53;5023462;28;19989;-61
2023/09/04 07:08:10;;;;;;;;;;;;;;;14.04;100.00;102573.69;5023761;28;19944;-61
2023/09/04 07:10:35;;;;;;;;;;;;;;;14.13;100.00;102565.28;5024079;28;19948;-61
2023/09/04 07:13:01;;;;;;;;;;;;;;;14.19;100.00;102563.78;5024278;28;19925;-61
2023/09/04 07:15:26;;;;;;;;;;;;;;;14.32;100.00;102562.47;5024311;28;20167;-61
2023/09/04 07:17:51;;;;;;;;;;;;;;;14.43;100.00;102560.25;5021300;28;19933;-61
2023/09/04 07:20:17;;;;;;;;;;;;;;;14.55;100.00;102562.41;5019900;28;19914;-61
2023/09/04 07:22:42;;;;;;;;;;;;;;;14.63;100.00;102555.75;5016567;28;19945;-61
2023/09/04 07:25:07;;;;;;;;;;;;;;;14.71;100.00;102556.00;5022641;28;19959;-61
2023/09/04 07:27:33;;;;;;;;;;;;;;;14.78;100.00;102553.63;5020599;28;20114;-61
2023/09/04 07:29:58;;;;;;;;;;;;;;;14.89;100.00;102560.97;5022857;28;19914;-61
2023/09/04 07:32:25;;;;;;;;;;;;;;;15.00;100.00;102558.69;5006143;28;20166;-61
2023/09/04 07:34:55;;;;;;;;;;;;;;;15.07;100.00;102555.44;5022506;28;19914;-61
2023/09/04 07:37:21;;;;;;;;;;;;;;;15.20;100.00;102567.22;5006313;28;20059;-61
2023/09/04 07:39:46;;;;;;;;;;;;;;;15.30;100.00;102564.06;5024305;28;19917;-61
2023/09/04 07:42:12;;;;;;;;;;;;;;;15.35;100.00;102567.72;5023405;28;20016;-61
2023/09/04 07:44:37;;;;;;;;;;;;;;;15.44;100.00;102575.88;5016401;28;19921;-61
2023/09/04 07:47:02;;;;;;;;;;;;;;;15.59;100.00;102572.81;5020717;28;20101;-61
2023/09/04 07:49:27;;;;;;;;;;;;;;;15.73;100.00;102575.88;5022190;28;19913;-61
2023/09/04 07:51:53;;;;;;;;;;;;;;;15.80;100.00;102567.38;5023428;28;19914;-61
2023/09/04 07:54:19;;;;;;;;;;;;;;;15.94;100.00;102565.13;5022425;28;19984;-61
2023/09/04 07:56:44;;;;;;;;;;;;;;;16.05;100.00;102556.66;5017430;28;19929;-62
2023/09/04 07:59:10;;;;;;;;;;;;;;;16.20;100.00;102556.22;5016894;28;19951;-62
2023/09/04 08:01:35;;;;;;;;;;;;;;;16.39;100.00;102549.72;5012846;28;20163;-62
2023/09/04 08:04:01;;;;;;;;;;;;;;;16.52;100.00;102544.84;5015524;28;19996;-62
2023/09/04 08:06:26;;;;;;;;;;;;;;;16.68;100.00;102546.13;5018445;28;20197;-62
2023/09/04 08:08:52;;;;;;;;;;;;;;;16.84;100.00;102557.94;5018793;28;19921;-62
2023/09/04 08:11:17;;;;;;;;;;;;;;;17.00;100.00;102553.97;5017480;28;19914;-62
2023/09/04 08:13:42;;;;;;;;;;;;;;;17.13;100.00;102549.91;5020354;28;19910;-62
2023/09/04 08:16:07;;;;;;;;;;;;;;;17.30;100.00;102554.66;5020730;28;19984;-62
2023/09/04 08:18:33;;;;;;;;;;;;;;;17.47;100.00;102550.66;5014780;28;19909;-62
2023/09/04 08:20:59;;;;;;;;;;;;;;;17.66;100.00;102548.44;5023421;28;19913;-62
2023/09/04 08:23:24;;;;;;;;;;;;;;;17.87;100.00;102546.25;5023577;28;19909;-62
2023/09/04 08:25:56;;;;;;;;;;;;;;;18.10;100.00;102543.22;5018276;28;19925;-62
2023/09/04 08:28:21;;;;;;;;;;;;;;;18.28;99.61;102544.41;5018178;28;19913;-62
2023/09/04 08:30:46;;;;;;;;;;;;;;;18.45;99.94;102545.66;5018001;28;20003;-62
2023/09/04 08:33:11;;;;;;;;;;;;;;;18.59;95.98;102537.97;5018396;28;20203;-62
2023/09/04 08:35:37;;;;;;;;;;;;;;;18.71;95.74;102537.28;5014735;28;19920;-62
2023/09/04 08:38:04;;;;;;;;;;;;;;;18.82;96.91;102538.34;5014199;28;19921;-62
2023/09/04 08:40:30;;;;;;;;;;;;;;;18.94;96.18;102541.25;5013238;28;19916;-62
2023/09/04 08:42:55;;;;;;;;;;;;;;;19.07;96.29;102536.13;5014428;28;19961;-63
2023/09/04 08:45:22;;;;;;;;;;;;;;;19.20;95.02;102538.09;5015900;28;19914;-62
2023/09/04 08:47:47;;;;;;;;;;;;;;;19.34;94.51;102542.72;5016433;28;19945;-63
2023/09/04 08:50:14;;;;;;;;;;;;;;;19.46;93.95;102535.84;5014759;28;19913;-62
2023/09/04 08:52:40;;;;;;;;;;;;;;;19.63;94.03;102538.69;5017725;28;19920;-63
2023/09/04 08:55:06;;;;;;;;;;;;;;;19.75;91.71;102550.31;5016269;28;19917;-64
2023/09/04 08:57:33;;;;;;;;;;;;;;;19.92;92.54;102546.16;5016249;28;19957;-63
2023/09/04 08:59:58;;;;;;;;;;;;;;;20.06;91.85;102537.47;5018051;28;20190;-63
2023/09/04 09:02:23;;;;;;;;;;;;;;;20.22;90.96;102533.22;5014752;28;20432;-63
2023/09/04 09:04:49;;;;;;;;;;;;;;;20.31;90.57;102528.06;5017706;28;19920;-63
2023/09/04 09:07:15;;;;;;;;;;;;;;;20.45;90.74;102539.66;5020282;28;19929;-63
2023/09/04 09:09:44;;;;;;;;;;;;;;;20.61;89.11;102530.09;5021169;28;19976;-64
2023/09/04 09:12:09;;;;;;;;;;;;;;;20.72;87.22;102518.75;5019300;28;19913;-63
2023/09/04 09:14:34;;;;;;;;;;;;;;;20.87;87.47;102523.25;5015894;28;20068;-63
2023/09/04 09:17:06;;;;;;;;;;;;;;;20.94;86.31;102523.34;5018771;28;19920;-64
2023/09/04 09:19:35;;;;;;;;;;;;;;;21.02;86.63;102526.03;5018227;28;20104;-63
2023/09/04 09:22:13;;;;;;;;;;;;;;;21.18;86.96;102532.31;5019422;28;19990;-64
2023/09/04 09:24:53;;;;;;;;;;;;;;;21.35;85.23;102527.13;5015585;28;19964;-63
2023/09/04 09:27:20;;;;;;;;;;;;;;;21.41;84.33;102523.63;5023047;28;20166;-64
2023/09/04 09:29:46;;;;;;;;;;;;;;;21.57;81.00;102528.16;5023442;28;19916;-64
2023/09/04 09:32:11;;;;;;;;;;;;;;;21.68;82.80;102534.41;5022876;28;20139;-64
2023/09/04 09:34:37;;;;;;;;;;;;;;;21.78;83.64;102531.78;5022323;28;19960;-64
2023/09/04 09:37:03;;;;;;;;;;;;;;;21.82;79.28;102525.59;5022806;28;19920;-64
2023/09/04 09:39:29;;;;;;;;;;;;;;;21.90;82.04;102523.88;5021861;28;19914;-64
2023/09/04 09:41:54;;;;;;;;;;;;;;;22.00;80.37;102523.03;5022013;28;20168;-64
2023/09/04 09:44:20;;;;;;;;;;;;;;;22.06;81.31;102525.69;5021679;28;20049;-64
2023/09/04 09:46:47;;;;;;;;;;;;;;;22.10;79.95;102531.00;5024119;28;19949;-64
2023/09/04 09:49:12;;;;;;;;;;;;;;;22.14;76.85;102527.47;5022927;28;19910;-64
2023/09/04 09:51:37;;;;;;;;;;;;;;;22.20;75.93;102524.81;5022162;28;20012;-64
2023/09/04 09:54:05;;;;;;;;;;;;;;;22.31;78.65;102522.19;5020623;28;19913;-64
2023/09/04 09:56:30;;;;;;;;;;;;;;;22.38;74.60;102516.91;5021771;28;19972;-64
2023/09/04 09:58:56;;;;;;;;;;;;;;;22.51;75.20;102517.81;5021284;28;19918;-64
2023/09/04 10:01:21;;;;;;;;;;;;;;;22.64;76.95;102516.06;5021992;28;19909;-64
2023/09/04 10:03:47;;;;;;;;;;;;;;;22.78;77.70;102509.84;5021970;28;20155;-64
2023/09/04 10:06:17;;;;;;;;;;;;;;;22.81;72.22;102507.19;5017683;28;20123;-65
2023/09/04 10:08:43;;;;;;;;;;;;;;;22.86;74.67;102500.09;5019687;28;19920;-64
2023/09/04 10:11:12;;;;;;;;;;;;;;;22.87;69.67;102496.53;5016594;28;19913;-64
2023/09/04 10:13:45;;;;;;;;;;;;;;;22.91;74.09;102503.63;5013978;28;19913;-65
2023/09/04 10:16:13;;;;;;;;;;;;;;;23.01;74.18;102494.72;5023380;28;19925;-66
2023/09/04 10:18:40;;;;;;;;;;;;;;;23.10;72.04;102507.13;5019968;28;19960;-67
2023/09/04 10:21:08;;;;;;;;;;;;;;;23.28;75.13;102500.94;5017817;28;19920;-67
2023/09/04 10:23:39;;;;;;;;;;;;;;;23.44;73.45;102502.63;5017200;28;19945;-67
2023/09/04 10:26:07;;;;;;;;;;;;;;;23.43;74.36;102503.53;5014900;28;20056;-66
2023/09/04 10:28:33;;;;;;;;;;;;;;;23.52;74.13;102502.63;5018682;28;19953;-65
2023/09/04 10:30:59;;;;;;;;;;;;;;;23.68;74.30;102491.88;5018588;28;19918;-66
2023/09/04 10:33:25;;;;;;;;;;;;;;;23.89;72.75;102491.81;5019208;28;19952;-66
2023/09/04 10:35:51;;;;;;;;;;;;;;;24.09;73.58;102477.50;5017893;28;19909;-66
2023/09/04 10:38:17;;;;;;;;;;;;;;;24.21;73.00;102484.50;5017842;28;20226;-66
2023/09/04 10:40:42;;;;;;;;;;;;;;;24.25;70.36;102479.16;5023959;28;20132;-66
2023/09/04 10:43:11;;;;;;;;;;;;;;;24.29;68.51;102478.22;5020309;28;19920;-66
2023/09/04 10:45:36;;;;;;;;;;;;;;;24.29;67.90;102472.91;5018952;28;19922;-67
2023/09/04 10:48:01;;;;;;;;;;;;;;;24.26;70.39;102464.03;5016718;28;20213;-67
2023/09/04 10:50:30;;;;;;;;;;;;;;;24.17;68.26;102470.31;5013906;28;19956;-67
2023/09/04 10:52:56;;;;;;;;;;;;;;;24.07;72.03;102465.97;5018482;28;20067;-67
2023/09/04 10:55:21;;;;;;;;;;;;;;;23.98;72.07;102458.03;5017050;28;20174;-66
2023/09/04 10:57:57;;;;;;;;;;;;;;;23.96;72.48;102466.03;5017719;28;19932;-67
2023/09/04 11:00:49;;;;;;;;;;;;;;;24.04;68.59;102458.91;5016827;28;19917;-67
2023/09/04 11:03:24;;;;;;;;;;;;;;;24.18;69.59;102455.25;5013758;28;19920;-67
2023/09/04 11:06:07;;;;;;;;;;;;;;;24.40;68.40;102448.81;5018548;28;19944;-66
2023/09/04 11:08:33;;;;;;;;;;;;;;;24.46;67.94;102446.13;5017532;28;19913;-66
2023/09/04 11:10:59;;;;;;;;;;;;;;;24.55;65.97;102446.91;5019688;28;19917;-66
2023/09/04 11:13:25;;;;;;;;;;;;;;;24.62;60.14;102443.34;5022702;28;20024;-66
2023/09/04 11:15:54;;;;;;;;;;;;;;;24.64;67.17;102438.88;5023172;28;20148;-66
2023/09/04 11:18:19;;;;;;;;;;;;;;;24.74;66.10;102437.91;5018697;28;20000;-66
2023/09/04 11:20:45;;;;;;;;;;;;;;;24.88;65.82;102444.84;5018194;28;19910;-66
2023/09/04 11:23:10;;;;;;;;;;;;;;;25.00;65.88;102437.59;5026922;28;19913;-68
2023/09/04 11:25:36;;;;;;;;;;;;;;;25.21;65.40;102440.03;5024736;28;19976;-68
2023/09/04 11:28:02;;;;;;;;;;;;;;;25.32;64.56;102436.38;5023902;28;19933;-67
2023/09/04 11:30:28;;;;;;;;;;;;;;;25.22;65.74;102436.47;5024788;28;19981;-68
2023/09/04 11:32:54;;;;;;;;;;;;;;;25.25;64.83;102425.78;5023858;28;19930;-67
2023/09/04 11:35:19;;;;;;;;;;;;;;;25.30;63.70;102426.56;5023272;28;19920;-68
2023/09/04 11:37:44;;;;;;;;;;;;;;;25.38;63.72;102427.41;5018946;28;19972;-66
2023/09/04 11:40:10;;;;;;;;;;;;;;;25.55;64.82;102423.59;5020721;28;19917;-68
2023/09/04 11:42:36;;;;;;;;;;;;;;;25.66;64.49;102421.69;5019325;28;19921;-68
2023/09/04 11:45:03;;;;;;;;;;;;;;;25.59;62.30;102423.56;5025053;28;20139;-67
2023/09/04 11:47:28;;;;;;;;;;;;;;;25.54;62.50;102417.41;5024291;28;19955;-67
2023/09/04 11:49:53;;;;;;;;;;;;;;;25.69;62.26;102424.28;5022474;28;19925;-67
2023/09/04 11:52:23;;;;;;;;;;;;;;;25.79;61.83;102412.56;5023783;28;19913;-67
2023/09/04 11:54:48;;;;;;;;;;;;;;;25.89;58.95;102417.78;5022738;28;19914;-67
2023/09/04 11:57:13;;;;;;;;;;;;;;;25.91;60.67;102415.97;5023715;28;19913;-67
2023/09/04 11:59:42;;;;;;;;;;;;;;;25.92;60.19;102413.28;5022348;28;19935;-66
2023/09/04 12:02:08;;;;;;;;;;;;;;;25.94;58.75;102419.47;5022376;28;19928;-66
2023/09/04 12:04:34;;;;;;;;;;;;;;;25.89;60.81;102413.31;5023205;28;19914;-66
2023/09/04 12:07:00;;;;;;;;;;;;;;;26.00;61.79;102413.19;5023314;28;19967;-66
2023/09/04 12:09:26;;;;;;;;;;;;;;;26.07;61.84;102409.53;5021807;28;19913;-66
2023/09/04 12:11:52;;;;;;;;;;;;;;;26.25;59.34;102408.31;5023546;28;19924;-66
2023/09/04 12:14:17;;;;;;;;;;;;;;;26.27;61.42;102413.63;5022141;28;19949;-67
2023/09/04 12:16:44;;;;;;;;;;;;;;;26.44;62.17;102416.88;5023130;28;19948;-65
2023/09/04 12:19:09;;;;;;;;;;;;;;;26.57;54.63;102416.69;5019075;28;19976;-66
2023/09/04 12:21:34;;;;;;;;;;;;;;;26.59;60.83;102410.38;4998608;28;19917;-65
2023/09/04 12:23:59;;;;;;;;;;;;;;;26.76;58.49;102407.41;5023984;28;19916;-65
2023/09/04 12:26:26;;;;;;;;;;;;;;;26.78;56.58;102400.25;5015417;28;19916;-65
2023/09/04 12:28:52;;;;;;;;;;;;;;;26.76;55.19;102395.84;5024187;28;19924;-65